sensor_id;sensor_type;location;lat;lon;timestamp;temperature;humidity
38606;DHT22;24365;48.446;8.850;2023-03-26T00:03:34;6.80;74.50
38606;DHT22;24365;48.446;8.850;2023-03-26T00:08:36;6.80;75.10
38606;DHT22;24365;48.446;8.850;2023-03-26T00:13:37;6.80;74.40
38606;DHT22;24365;48.446;8.850;2023-03-26T00:18:39;6.80;75.10
38606;DHT22;24365;48.446;8.850;2023-03-26T00:23:42;6.80;75.00
38606;DHT22;24365;48.446;8.850;2023-03-26T00:28:43;6.70;75.60
38606;DHT22;24365;48.446;8.850;2023-03-26T00:33:44;6.70;74.80
38606;DHT22;24365;48.446;8.850;2023-03-26T00:38:45;6.70;74.30
38606;DHT22;24365;48.446;8.850;2023-03-26T00:43:48;6.70;74.00
38606;DHT22;24365;48.446;8.850;2023-03-26T00:48:49;6.70;73.00
38606;DHT22;24365;48.446;8.850;2023-03-26T00:53:50;6.70;73.50
38606;DHT22;24365;48.446;8.850;2023-03-26T00:58:51;6.70;73.30
38606;DHT22;24365;48.446;8.850;2023-03-26T01:03:53;6.60;72.90
38606;DHT22;24365;48.446;8.850;2023-03-26T01:09:05;6.60;72.80
38606;DHT22;24365;48.446;8.850;2023-03-26T01:19:20;6.50;72.40
38606;DHT22;24365;48.446;8.850;2023-03-26T01:24:22;6.40;73.60
38606;DHT22;24365;48.446;8.850;2023-03-26T01:34:29;6.30;74.40
38606;DHT22;24365;48.446;8.850;2023-03-26T01:39:40;6.40;73.80
38606;DHT22;24365;48.446;8.850;2023-03-26T01:44:54;6.30;73.80
38606;DHT22;24365;48.446;8.850;2023-03-26T01:49:56;6.30;73.80
38606;DHT22;24365;48.446;8.850;2023-03-26T01:54:57;6.30;73.50
38606;DHT22;24365;48.446;8.850;2023-03-26T02:10:23;6.20;72.70
38606;DHT22;24365;48.446;8.850;2023-03-26T02:15:25;6.20;73.00
38606;DHT22;24365;48.446;8.850;2023-03-26T02:20:26;6.20;73.30
38606;DHT22;24365;48.446;8.850;2023-03-26T02:25:30;6.20;72.80
38606;DHT22;24365;48.446;8.850;2023-03-26T02:30:32;6.10;73.00
38606;DHT22;24365;48.446;8.850;2023-03-26T02:35:34;6.10;73.20
38606;DHT22;24365;48.446;8.850;2023-03-26T02:40:36;6.10;73.20
38606;DHT22;24365;48.446;8.850;2023-03-26T02:45:37;6.00;73.10
38606;DHT22;24365;48.446;8.850;2023-03-26T02:50:38;6.00;73.30
38606;DHT22;24365;48.446;8.850;2023-03-26T02:55:59;6.00;73.00
38606;DHT22;24365;48.446;8.850;2023-03-26T03:01:05;6.00;72.90
38606;DHT22;24365;48.446;8.850;2023-03-26T03:06:18;6.00;72.90
38606;DHT22;24365;48.446;8.850;2023-03-26T03:11:24;6.00;72.80
38606;DHT22;24365;48.446;8.850;2023-03-26T03:16:25;6.00;72.80
38606;DHT22;24365;48.446;8.850;2023-03-26T03:21:27;5.90;72.70
38606;DHT22;24365;48.446;8.850;2023-03-26T03:26:28;5.90;73.30
38606;DHT22;24365;48.446;8.850;2023-03-26T03:31:31;5.90;73.50
38606;DHT22;24365;48.446;8.850;2023-03-26T03:42:00;5.80;74.60
38606;DHT22;24365;48.446;8.850;2023-03-26T03:47:02;5.70;74.90
38606;DHT22;24365;48.446;8.850;2023-03-26T03:52:03;5.70;75.50
38606;DHT22;24365;48.446;8.850;2023-03-26T03:57:12;5.60;76.30
38606;DHT22;24365;48.446;8.850;2023-03-26T04:02:18;5.60;76.50
38606;DHT22;24365;48.446;8.850;2023-03-26T04:07:37;5.60;76.30
38606;DHT22;24365;48.446;8.850;2023-03-26T04:12:38;5.60;75.80
38606;DHT22;24365;48.446;8.850;2023-03-26T04:17:40;5.70;75.50
38606;DHT22;24365;48.446;8.850;2023-03-26T04:22:43;5.60;75.70
38606;DHT22;24365;48.446;8.850;2023-03-26T04:27:47;5.60;76.40
38606;DHT22;24365;48.446;8.850;2023-03-26T04:32:53;5.50;77.40
38606;DHT22;24365;48.446;8.850;2023-03-26T04:37:58;5.50;77.50
38606;DHT22;24365;48.446;8.850;2023-03-26T04:43:07;5.50;77.50
38606;DHT22;24365;48.446;8.850;2023-03-26T04:48:28;5.50;77.10
38606;DHT22;24365;48.446;8.850;2023-03-26T04:53:31;5.60;76.80
38606;DHT22;24365;48.446;8.850;2023-03-26T04:58:54;5.60;75.80
38606;DHT22;24365;48.446;8.850;2023-03-26T05:03:58;5.60;76.60
38606;DHT22;24365;48.446;8.850;2023-03-26T05:09:01;5.40;78.90
38606;DHT22;24365;48.446;8.850;2023-03-26T05:14:24;5.40;78.50
38606;DHT22;24365;48.446;8.850;2023-03-26T05:19:26;5.40;78.20
38606;DHT22;24365;48.446;8.850;2023-03-26T05:24:27;5.40;79.60
38606;DHT22;24365;48.446;8.850;2023-03-26T05:29:29;5.40;78.10
38606;DHT22;24365;48.446;8.850;2023-03-26T05:34:30;5.50;77.40
38606;DHT22;24365;48.446;8.850;2023-03-26T05:39:31;5.50;76.70
38606;DHT22;24365;48.446;8.850;2023-03-26T05:44:51;5.60;76.50
38606;DHT22;24365;48.446;8.850;2023-03-26T05:49:58;5.60;76.40
38606;DHT22;24365;48.446;8.850;2023-03-26T05:55:01;5.60;76.40
38606;DHT22;24365;48.446;8.850;2023-03-26T06:00:31;5.60;76.30
38606;DHT22;24365;48.446;8.850;2023-03-26T06:05:34;5.60;76.50
38606;DHT22;24365;48.446;8.850;2023-03-26T06:11:01;5.60;77.40
38606;DHT22;24365;48.446;8.850;2023-03-26T06:16:05;5.70;76.90
38606;DHT22;24365;48.446;8.850;2023-03-26T06:21:09;5.60;77.20
38606;DHT22;24365;48.446;8.850;2023-03-26T06:26:18;5.60;77.50
38606;DHT22;24365;48.446;8.850;2023-03-26T06:31:30;5.60;77.40
38606;DHT22;24365;48.446;8.850;2023-03-26T06:36:46;5.60;77.40
38606;DHT22;24365;48.446;8.850;2023-03-26T06:41:49;5.70;77.10
38606;DHT22;24365;48.446;8.850;2023-03-26T06:47:08;5.70;76.50
38606;DHT22;24365;48.446;8.850;2023-03-26T06:52:32;5.70;76.80
38606;DHT22;24365;48.446;8.850;2023-03-26T06:58:03;5.70;77.30
38606;DHT22;24365;48.446;8.850;2023-03-26T07:03:26;5.80;77.80
38606;DHT22;24365;48.446;8.850;2023-03-26T07:08:47;5.90;77.30
38606;DHT22;24365;48.446;8.850;2023-03-26T07:14:11;5.90;78.20
38606;DHT22;24365;48.446;8.850;2023-03-26T07:19:22;5.90;79.00
38606;DHT22;24365;48.446;8.850;2023-03-26T07:24:23;6.00;81.40
38606;DHT22;24365;48.446;8.850;2023-03-26T07:29:47;6.00;81.00
38606;DHT22;24365;48.446;8.850;2023-03-26T07:35:07;6.00;83.00
38606;DHT22;24365;48.446;8.850;2023-03-26T07:45:52;6.20;85.70
38606;DHT22;24365;48.446;8.850;2023-03-26T07:50:58;6.30;87.20
38606;DHT22;24365;48.446;8.850;2023-03-26T07:56:20;6.30;85.90
38606;DHT22;24365;48.446;8.850;2023-03-26T08:07:16;6.20;88.10
38606;DHT22;24365;48.446;8.850;2023-03-26T08:18:12;6.30;88.50
38606;DHT22;24365;48.446;8.850;2023-03-26T08:33:37;6.50;89.60
38606;DHT22;24365;48.446;8.850;2023-03-26T08:38:40;6.50;91.50
38606;DHT22;24365;48.446;8.850;2023-03-26T09:41:40;9.50;74.40
38606;DHT22;24365;48.446;8.850;2023-03-26T09:56:56;8.80;78.60
38606;DHT22;24365;48.446;8.850;2023-03-26T10:02:16;8.60;78.90
38606;DHT22;24365;48.446;8.850;2023-03-26T10:22:30;9.10;79.60
38606;DHT22;24365;48.446;8.850;2023-03-26T10:38:21;10.10;71.40
38606;DHT22;24365;48.446;8.850;2023-03-26T10:49:00;10.10;74.40
38606;DHT22;24365;48.446;8.850;2023-03-26T10:54:45;9.80;66.80
38606;DHT22;24365;48.446;8.850;2023-03-26T10:59:34;9.80;67.40
38606;DHT22;24365;48.446;8.850;2023-03-26T11:10:07;9.90;67.00
38606;DHT22;24365;48.446;8.850;2023-03-26T11:20:16;10.70;66.60
38606;DHT22;24365;48.446;8.850;2023-03-26T11:25:25;11.20;62.20
38606;DHT22;24365;48.446;8.850;2023-03-26T11:30:47;11.60;61.20
38606;DHT22;24365;48.446;8.850;2023-03-26T11:35:51;11.90;60.30
38606;DHT22;24365;48.446;8.850;2023-03-26T11:40:55;12.10;57.40
38606;DHT22;24365;48.446;8.850;2023-03-26T11:46:16;12.10;55.10
38606;DHT22;24365;48.446;8.850;2023-03-26T11:51:33;12.70;53.20
38606;DHT22;24365;48.446;8.850;2023-03-26T12:01:55;13.00;49.70
38606;DHT22;24365;48.446;8.850;2023-03-26T12:06:58;13.40;49.60
38606;DHT22;24365;48.446;8.850;2023-03-26T12:12:04;13.60;46.80
38606;DHT22;24365;48.446;8.850;2023-03-26T12:17:10;13.80;44.50
38606;DHT22;24365;48.446;8.850;2023-03-26T12:27:31;14.30;41.90
38606;DHT22;24365;48.446;8.850;2023-03-26T12:32:37;14.20;39.00
38606;DHT22;24365;48.446;8.850;2023-03-26T12:37:39;14.20;38.60
38606;DHT22;24365;48.446;8.850;2023-03-26T12:42:50;14.20;38.10
38606;DHT22;24365;48.446;8.850;2023-03-26T12:47:53;13.90;38.40
38606;DHT22;24365;48.446;8.850;2023-03-26T12:58:18;13.50;40.50
38606;DHT22;24365;48.446;8.850;2023-03-26T13:13:48;15.10;39.10
38606;DHT22;24365;48.446;8.850;2023-03-26T13:19:00;15.50;35.90
38606;DHT22;24365;48.446;8.850;2023-03-26T13:24:14;15.00;36.30
38606;DHT22;24365;48.446;8.850;2023-03-26T13:34:35;14.40;37.30
38606;DHT22;24365;48.446;8.850;2023-03-26T13:40:02;13.90;38.30
38606;DHT22;24365;48.446;8.850;2023-03-26T13:50:29;13.30;40.00
38606;DHT22;24365;48.446;8.850;2023-03-26T13:55:31;13.20;39.40
38606;DHT22;24365;48.446;8.850;2023-03-26T14:05:42;14.00;36.50
38606;DHT22;24365;48.446;8.850;2023-03-26T14:10:50;14.00;36.20
38606;DHT22;24365;48.446;8.850;2023-03-26T14:15:57;14.00;36.20
38606;DHT22;24365;48.446;8.850;2023-03-26T14:21:09;14.20;36.10
38606;DHT22;24365;48.446;8.850;2023-03-26T14:37:01;13.10;36.20
38606;DHT22;24365;48.446;8.850;2023-03-26T14:42:23;12.70;36.90
38606;DHT22;24365;48.446;8.850;2023-03-26T14:47:25;12.40;38.80
38606;DHT22;24365;48.446;8.850;2023-03-26T15:45:50;8.50;67.70
38606;DHT22;24365;48.446;8.850;2023-03-26T15:50:46;8.60;67.50
38606;DHT22;24365;48.446;8.850;2023-03-26T16:01:24;8.80;64.90
38606;DHT22;24365;48.446;8.850;2023-03-26T16:11:44;9.30;66.90
38606;DHT22;24365;48.446;8.850;2023-03-26T16:21:56;9.80;64.50
38606;DHT22;24365;48.446;8.850;2023-03-26T16:42:38;9.50;62.60
38606;DHT22;24365;48.446;8.850;2023-03-26T16:47:50;9.30;63.20
38606;DHT22;24365;48.446;8.850;2023-03-26T16:52:55;9.40;62.60
38606;DHT22;24365;48.446;8.850;2023-03-26T17:09:21;9.20;63.20
38606;DHT22;24365;48.446;8.850;2023-03-26T17:14:04;9.20;63.90
38606;DHT22;24365;48.446;8.850;2023-03-26T17:24:26;8.80;65.30
38606;DHT22;24365;48.446;8.850;2023-03-26T17:34:59;8.80;65.40
38606;DHT22;24365;48.446;8.850;2023-03-26T17:50:16;8.60;65.30
38606;DHT22;24365;48.446;8.850;2023-03-26T17:55:19;8.60;65.30
38606;DHT22;24365;48.446;8.850;2023-03-26T18:00:22;8.40;64.80
38606;DHT22;24365;48.446;8.850;2023-03-26T18:05:26;8.20;65.80
38606;DHT22;24365;48.446;8.850;2023-03-26T18:15:47;8.10;65.80
38606;DHT22;24365;48.446;8.850;2023-03-26T18:20:48;8.10;66.00
38606;DHT22;24365;48.446;8.850;2023-03-26T18:25:54;7.90;65.70
38606;DHT22;24365;48.446;8.850;2023-03-26T18:31:05;7.70;67.10
38606;DHT22;24365;48.446;8.850;2023-03-26T18:36:07;7.60;65.60
38606;DHT22;24365;48.446;8.850;2023-03-26T18:41:21;7.30;67.90
38606;DHT22;24365;48.446;8.850;2023-03-26T18:46:23;7.10;68.30
38606;DHT22;24365;48.446;8.850;2023-03-26T18:51:25;7.00;69.40
38606;DHT22;24365;48.446;8.850;2023-03-26T18:56:27;6.90;69.90
38606;DHT22;24365;48.446;8.850;2023-03-26T19:01:30;6.80;70.30
38606;DHT22;24365;48.446;8.850;2023-03-26T19:06:33;6.80;69.90
38606;DHT22;24365;48.446;8.850;2023-03-26T19:11:38;6.70;70.50
38606;DHT22;24365;48.446;8.850;2023-03-26T19:16:40;6.70;71.00
38606;DHT22;24365;48.446;8.850;2023-03-26T19:21:43;6.70;71.20
38606;DHT22;24365;48.446;8.850;2023-03-26T19:26:44;6.70;71.70
38606;DHT22;24365;48.446;8.850;2023-03-26T19:31:49;6.80;71.20
38606;DHT22;24365;48.446;8.850;2023-03-26T19:36:58;6.90;71.30
38606;DHT22;24365;48.446;8.850;2023-03-26T19:42:02;7.00;70.30
38606;DHT22;24365;48.446;8.850;2023-03-26T19:47:29;7.00;70.20
38606;DHT22;24365;48.446;8.850;2023-03-26T19:52:32;7.00;70.30
38606;DHT22;24365;48.446;8.850;2023-03-26T19:57:34;6.90;70.10
38606;DHT22;24365;48.446;8.850;2023-03-26T20:02:36;7.00;70.00
38606;DHT22;24365;48.446;8.850;2023-03-26T20:07:37;6.90;70.30
38606;DHT22;24365;48.446;8.850;2023-03-26T20:12:38;7.00;69.70
38606;DHT22;24365;48.446;8.850;2023-03-26T20:17:39;7.00;69.10
38606;DHT22;24365;48.446;8.850;2023-03-26T20:22:43;7.00;68.60
38606;DHT22;24365;48.446;8.850;2023-03-26T20:27:46;7.00;68.60
38606;DHT22;24365;48.446;8.850;2023-03-26T20:32:47;6.80;68.60
38606;DHT22;24365;48.446;8.850;2023-03-26T20:37:50;6.70;68.50
38606;DHT22;24365;48.446;8.850;2023-03-26T20:42:51;6.50;69.40
38606;DHT22;24365;48.446;8.850;2023-03-26T20:47:52;6.40;69.40
38606;DHT22;24365;48.446;8.850;2023-03-26T20:52:53;6.30;70.20
38606;DHT22;24365;48.446;8.850;2023-03-26T20:57:54;6.20;70.70
38606;DHT22;24365;48.446;8.850;2023-03-26T21:02:55;6.20;71.30
38606;DHT22;24365;48.446;8.850;2023-03-26T21:07:57;6.20;71.20
38606;DHT22;24365;48.446;8.850;2023-03-26T21:13:09;6.10;71.70
38606;DHT22;24365;48.446;8.850;2023-03-26T21:18:12;6.00;71.40
38606;DHT22;24365;48.446;8.850;2023-03-26T21:23:22;6.00;71.80
38606;DHT22;24365;48.446;8.850;2023-03-26T21:28:31;6.00;72.00
38606;DHT22;24365;48.446;8.850;2023-03-26T21:33:33;6.00;72.30
